Terminal Aerodrome Forecast
Issued by NWS Cleveland, OH

Home | Current Version | Previous Version | Text Only | Print | Product List | Glossary On
Versions: 1 2 3 4 5 6 7 8 9 10 11 12 13 14 15 16 17 18 19 20 21 22 23 24 25 26 27 28 29 30 31 32 33 34 35 36
077
FTUS41 KCLE 292338
TAFCLE
TAF
KCLE 292338Z 3000/3106 07012KT P6SM BKN120 OVC200
     FM301000 07012KT P6SM SCT025 OVC050
     FM301400 09012G20KT 6SM -RA BR SCT008 OVC018
      TEMPO 3020/3024 2SM -RA BR OVC008
     FM310100 10012KT 4SM -DZ BR OVC012=

USA.gov is the U.S. government's official web portal to all federal, state and local government web resources and services.